Time;durP1;ratioP1;P1;durP2;ratioP2;P2;SDS_P1;SDS_P2;PMS_P1;PMS_P2;Temp;Humidity;BMP_temperature;BMP_pressure;BME280_temperature;BME280_humidity;BME280_pressure;Samples;Min_cycle;Max_cycle;Signal;HPM_P1;HPM_P2
2022/10/31 00:02:50;;;;;;;25.20;22.60;;;;;;;;;;4907512;29;20468;-68
2022/10/31 00:05:43;;;;;;;27.53;24.60;;;;;;;;;;4924127;29;20572;-69
2022/10/31 00:08:33;;;;;;;25.73;23.33;;;;;;;;;;4917378;29;20800;-68
2022/10/31 00:11:22;;;;;;;27.00;24.30;;;;;;;;;;4918580;28;20570;-69
2022/10/31 00:14:17;;;;;;;27.67;24.70;;;;;;;;;;4923212;29;20468;-69
2022/10/31 00:17:07;;;;;;;25.60;23.10;;;;;;;;;;4915677;29;20839;-69
2022/10/31 00:19:56;;;;;;;27.27;24.57;;;;;;;;;;4910431;29;20463;-69
2022/10/31 00:22:49;;;;;;;27.37;24.60;;;;;;;;;;4911544;29;21129;-69
2022/10/31 00:25:43;;;;;;;30.20;27.13;;;;;;;;;;4914734;29;20476;-69
2022/10/31 00:28:36;;;;;;;25.83;23.10;;;;;;;;;;4913257;29;20460;-69
2022/10/31 00:31:27;;;;;;;27.80;24.90;;;;;;;;;;4908635;29;20620;-69
2022/10/31 00:34:17;;;;;;;27.87;24.97;;;;;;;;;;4919340;29;20483;-68
2022/10/31 00:37:08;;;;;;;25.20;22.83;;;;;;;;;;4916755;29;20475;-69
2022/10/31 00:39:58;;;;;;;24.03;21.63;;;;;;;;;;4908875;29;20460;-69
2022/10/31 00:42:48;;;;;;;26.13;23.43;;;;;;;;;;4917610;29;20459;-69
2022/10/31 00:45:39;;;;;;;29.80;26.80;;;;;;;;;;4907295;29;20504;-69
2022/10/31 00:48:28;;;;;;;26.20;23.83;;;;;;;;;;4913426;29;20828;-69
2022/10/31 00:51:25;;;;;;;29.73;26.70;;;;;;;;;;4918237;29;20488;-70
2022/10/31 00:54:17;;;;;;;28.83;25.67;;;;;;;;;;4913711;29;20487;-70
2022/10/31 00:57:07;;;;;;;26.07;23.47;;;;;;;;;;4910625;29;20514;-70
2022/10/31 00:59:59;;;;;;;27.10;24.50;;;;;;;;;;4908631;29;21400;-70
2022/10/31 01:02:47;;;;;;;26.37;23.73;;;;;;;;;;4897200;29;20459;-69
2022/10/31 01:05:38;;;;;;;25.63;23.10;;;;;;;;;;4915020;29;20476;-70
2022/10/31 01:08:26;;;;;;;26.50;23.83;;;;;;;;;;4906190;29;22126;-70
2022/10/31 01:11:23;;;;;;;27.40;24.13;;;;;;;;;;4908311;29;20481;-70
2022/10/31 01:14:15;;;;;;;25.20;22.83;;;;;;;;;;4922676;29;20469;-70
2022/10/31 01:17:06;;;;;;;25.83;23.00;;;;;;;;;;4908745;29;20456;-70
2022/10/31 01:19:58;;;;;;;25.17;22.77;;;;;;;;;;4910381;29;20460;-70
2022/10/31 01:22:47;;;;;;;26.43;23.83;;;;;;;;;;4905265;29;20472;-69
2022/10/31 01:25:36;;;;;;;25.40;22.73;;;;;;;;;;4904040;29;20555;-70
2022/10/31 01:28:25;;;;;;;24.23;21.93;;;;;;;;;;4915863;29;20455;-70
2022/10/31 01:31:20;;;;;;;25.57;23.00;;;;;;;;;;4920757;29;20578;-70
2022/10/31 01:34:12;;;;;;;25.80;23.20;;;;;;;;;;4922568;29;20456;-69
2022/10/31 01:37:04;;;;;;;25.30;22.80;;;;;;;;;;4921499;29;20449;-70
2022/10/31 01:39:55;;;;;;;26.30;23.60;;;;;;;;;;4919482;29;20444;-69
2022/10/31 01:42:43;;;;;;;26.33;23.20;;;;;;;;;;4923565;29;20487;-69
2022/10/31 01:45:37;;;;;;;25.30;22.70;;;;;;;;;;4921393;29;20530;-70
2022/10/31 01:48:31;;;;;;;27.87;25.00;;;;;;;;;;4921803;29;20503;-69
2022/10/31 01:51:26;;;;;;;27.20;24.20;;;;;;;;;;4922179;29;20837;-69
2022/10/31 01:54:18;;;;;;;25.20;22.53;;;;;;;;;;4922402;29;20536;-70
2022/10/31 01:57:10;;;;;;;28.80;25.17;;;;;;;;;;4922096;29;20444;-70
2022/10/31 02:00:02;;;;;;;27.43;24.33;;;;;;;;;;4916702;29;20577;-70
2022/10/31 02:02:51;;;;;;;27.67;24.47;;;;;;;;;;4907258;29;20810;-70
2022/10/31 02:05:43;;;;;;;27.43;24.50;;;;;;;;;;4917195;29;20603;-70
2022/10/31 02:08:35;;;;;;;26.10;23.40;;;;;;;;;;4917530;29;20457;-70
2022/10/31 02:11:28;;;;;;;28.80;23.00;;;;;;;;;;4912818;29;20495;-71
2022/10/31 02:14:17;;;;;;;27.70;24.77;;;;;;;;;;4908399;29;20519;-69
2022/10/31 02:17:08;;;;;;;29.63;24.27;;;;;;;;;;4909509;29;20520;-69
2022/10/31 02:20:02;;;;;;;31.27;24.87;;;;;;;;;;4903776;29;20471;-69
2022/10/31 02:23:04;;;;;;;31.13;25.40;;;;;;;;;;4900827;29;21059;-69
2022/10/31 02:26:02;;;;;;;28.40;24.57;;;;;;;;;;4920385;29;20551;-69
2022/10/31 02:28:59;;;;;;;26.53;22.63;;;;;;;;;;4918313;29;21461;-69
2022/10/31 02:32:00;;;;;;;26.37;23.37;;;;;;;;;;4912215;29;20563;-69
2022/10/31 02:34:53;;;;;;;26.13;23.33;;;;;;;;;;4915412;29;20582;-69
2022/10/31 02:37:46;;;;;;;28.17;24.23;;;;;;;;;;4919427;29;20464;-70
2022/10/31 02:40:39;;;;;;;32.07;28.10;;;;;;;;;;4905528;28;20481;-69
2022/10/31 02:43:30;;;;;;;27.07;24.13;;;;;;;;;;4905143;29;20480;-69
2022/10/31 02:46:21;;;;;;;30.17;25.53;;;;;;;;;;4912746;29;20475;-69
2022/10/31 02:49:13;;;;;;;27.10;24.07;;;;;;;;;;4906490;29;20468;-69
2022/10/31 02:52:01;;;;;;;28.60;24.40;;;;;;;;;;4905425;29;20742;-69
2022/10/31 02:54:52;;;;;;;29.27;25.13;;;;;;;;;;4907231;29;21190;-69
2022/10/31 02:57:44;;;;;;;32.90;27.20;;;;;;;;;;4909964;29;20461;-69
2022/10/31 03:00:38;;;;;;;25.37;22.77;;;;;;;;;;4903624;29;20480;-69
2022/10/31 03:03:38;;;;;;;26.67;23.47;;;;;;;;;;4912745;29;20495;-69
2022/10/31 03:06:42;;;;;;;28.03;23.87;;;;;;;;;;4921588;29;20848;-70
2022/10/31 03:09:38;;;;;;;26.30;23.33;;;;;;;;;;4919136;29;20463;-69
2022/10/31 03:12:29;;;;;;;24.80;20.87;;;;;;;;;;4919828;29;20488;-69
2022/10/31 03:15:20;;;;;;;26.37;23.10;;;;;;;;;;4906659;29;21281;-69
2022/10/31 03:18:15;;;;;;;29.87;24.33;;;;;;;;;;4916210;29;20588;-69
2022/10/31 03:21:15;;;;;;;27.30;22.90;;;;;;;;;;4906473;29;20484;-69
2022/10/31 03:24:11;;;;;;;27.53;23.40;;;;;;;;;;4916324;29;20453;-69
2022/10/31 03:27:02;;;;;;;25.33;22.20;;;;;;;;;;4913604;29;21065;-69
2022/10/31 03:29:54;;;;;;;27.30;23.33;;;;;;;;;;4913101;29;20507;-69
2022/10/31 03:32:51;;;;;;;28.20;24.07;;;;;;;;;;4918239;29;20465;-69
2022/10/31 03:35:42;;;;;;;25.77;22.70;;;;;;;;;;4919271;29;20460;-69
2022/10/31 03:38:33;;;;;;;27.83;22.80;;;;;;;;;;4915366;29;20847;-69
2022/10/31 03:41:32;;;;;;;30.60;23.20;;;;;;;;;;4921790;29;20493;-69
2022/10/31 03:44:22;;;;;;;29.50;24.23;;;;;;;;;;4918510;29;20499;-69
2022/10/31 03:47:12;;;;;;;27.53;22.57;;;;;;;;;;4920435;29;20480;-68
2022/10/31 03:50:06;;;;;;;26.53;23.43;;;;;;;;;;4920135;29;20508;-69
2022/10/31 03:52:59;;;;;;;29.93;23.83;;;;;;;;;;4924153;29;20469;-69
2022/10/31 03:55:51;;;;;;;24.40;21.77;;;;;;;;;;4920804;29;20472;-69
2022/10/31 03:58:46;;;;;;;25.43;22.63;;;;;;;;;;4919113;29;20456;-70
2022/10/31 04:01:36;;;;;;;27.63;23.57;;;;;;;;;;4912148;29;20493;-70
2022/10/31 04:04:29;;;;;;;29.50;26.00;;;;;;;;;;4918413;29;20467;-70
2022/10/31 04:07:19;;;;;;;32.13;23.97;;;;;;;;;;4910095;29;20487;-70
2022/10/31 04:10:10;;;;;;;29.37;24.50;;;;;;;;;;4907595;28;20499;-70
2022/10/31 04:13:06;;;;;;;30.97;24.90;;;;;;;;;;4908319;29;20457;-70
2022/10/31 04:16:00;;;;;;;31.27;24.53;;;;;;;;;;4911375;29;20564;-70
2022/10/31 04:18:49;;;;;;;33.97;27.10;;;;;;;;;;4915487;29;20453;-70
2022/10/31 04:21:37;;;;;;;30.20;25.20;;;;;;;;;;4908244;29;20868;-70
2022/10/31 04:24:26;;;;;;;38.00;27.17;;;;;;;;;;4909073;29;20460;-69
2022/10/31 04:27:17;;;;;;;31.90;25.30;;;;;;;;;;4917203;29;21206;-69
2022/10/31 04:30:11;;;;;;;26.50;23.57;;;;;;;;;;4914474;29;23263;-70
2022/10/31 04:33:01;;;;;;;28.40;24.10;;;;;;;;;;4911211;29;20461;-69
2022/10/31 04:35:51;;;;;;;36.13;27.30;;;;;;;;;;4918408;28;20973;-69
2022/10/31 04:38:40;;;;;;;32.37;24.27;;;;;;;;;;4907784;29;20463;-69
2022/10/31 04:41:28;;;;;;;35.07;26.50;;;;;;;;;;4919908;29;21068;-69
2022/10/31 04:44:19;;;;;;;33.50;27.00;;;;;;;;;;4918330;29;20458;-69
2022/10/31 04:47:08;;;;;;;29.87;23.93;;;;;;;;;;4920674;29;20476;-69
2022/10/31 04:49:57;;;;;;;31.20;26.30;;;;;;;;;;4920473;29;21190;-69
2022/10/31 04:52:47;;;;;;;27.93;24.37;;;;;;;;;;4918214;29;20465;-69
2022/10/31 04:55:38;;;;;;;38.23;28.27;;;;;;;;;;4918298;29;20906;-69
2022/10/31 04:58:34;;;;;;;33.47;25.40;;;;;;;;;;4922223;29;20457;-69
2022/10/31 05:01:28;;;;;;;38.27;26.73;;;;;;;;;;4920130;29;20485;-69
2022/10/31 05:04:16;;;;;;;35.80;27.77;;;;;;;;;;4914598;29;20512;-69
2022/10/31 05:07:06;;;;;;;38.57;27.57;;;;;;;;;;4923507;29;20480;-69
2022/10/31 05:09:57;;;;;;;38.00;27.57;;;;;;;;;;4913370;29;20453;-69
2022/10/31 05:12:52;;;;;;;38.90;28.73;;;;;;;;;;4905622;29;20660;-69
2022/10/31 05:15:41;;;;;;;32.77;24.60;;;;;;;;;;4908417;29;20456;-69
2022/10/31 05:18:31;;;;;;;36.77;27.00;;;;;;;;;;4907050;29;20483;-69
2022/10/31 05:21:25;;;;;;;31.43;24.60;;;;;;;;;;4909978;29;20488;-69
2022/10/31 05:24:19;;;;;;;28.67;24.10;;;;;;;;;;4907670;29;21153;-69
2022/10/31 05:27:10;;;;;;;35.87;24.50;;;;;;;;;;4913731;29;20480;-69
2022/10/31 05:29:59;;;;;;;34.70;25.60;;;;;;;;;;4920483;29;20490;-69
2022/10/31 05:32:52;;;;;;;29.10;20.83;;;;;;;;;;4923769;29;20452;-69
2022/10/31 05:35:41;;;;;;;33.03;24.77;;;;;;;;;;4922659;29;20452;-69
2022/10/31 05:38:32;;;;;;;30.70;25.13;;;;;;;;;;4920818;29;20483;-70
2022/10/31 05:41:27;;;;;;;34.80;25.50;;;;;;;;;;4920189;28;20480;-70
2022/10/31 05:44:15;;;;;;;32.70;23.60;;;;;;;;;;4922188;29;20457;-70
2022/10/31 05:47:11;;;;;;;31.37;24.27;;;;;;;;;;4922673;29;20897;-70
2022/10/31 05:50:00;;;;;;;34.80;25.33;;;;;;;;;;4920987;29;20461;-69
2022/10/31 05:52:55;;;;;;;33.40;23.67;;;;;;;;;;4917120;29;20460;-69
2022/10/31 05:55:48;;;;;;;29.27;20.80;;;;;;;;;;4918594;29;20883;-69
2022/10/31 05:58:39;;;;;;;29.80;21.17;;;;;;;;;;4919478;29;20446;-70
2022/10/31 06:01:27;;;;;;;35.47;25.50;;;;;;;;;;4914559;29;20483;-71
2022/10/31 06:04:16;;;;;;;28.03;21.57;;;;;;;;;;4919342;29;20458;-70
2022/10/31 06:07:04;;;;;;;33.70;22.47;;;;;;;;;;4915819;29;20857;-70
2022/10/31 06:09:54;;;;;;;31.93;22.27;;;;;;;;;;4913478;29;20619;-70
2022/10/31 06:12:45;;;;;;;27.37;19.73;;;;;;;;;;4912517;29;20472;-69
2022/10/31 06:15:35;;;;;;;34.80;23.57;;;;;;;;;;4912882;29;20461;-70
2022/10/31 06:18:29;;;;;;;33.97;24.70;;;;;;;;;;4914636;29;20467;-70
2022/10/31 06:21:19;;;;;;;29.80;22.43;;;;;;;;;;4909343;29;20495;-70
2022/10/31 06:24:09;;;;;;;35.80;24.23;;;;;;;;;;4913350;29;20464;-69
2022/10/31 06:26:59;;;;;;;33.80;24.37;;;;;;;;;;4919559;29;20957;-69
2022/10/31 06:29:47;;;;;;;34.83;26.53;;;;;;;;;;4916484;29;20464;-70
2022/10/31 06:32:37;;;;;;;36.60;24.47;;;;;;;;;;4916458;29;20515;-70
2022/10/31 06:35:29;;;;;;;34.30;24.40;;;;;;;;;;4913851;29;20539;-70
2022/10/31 06:38:17;;;;;;;36.53;25.33;;;;;;;;;;4918903;29;20462;-70
2022/10/31 06:41:10;;;;;;;31.97;21.50;;;;;;;;;;4912901;29;20484;-70
2022/10/31 06:44:06;;;;;;;34.70;23.13;;;;;;;;;;4914526;29;20950;-70
2022/10/31 06:46:56;;;;;;;36.53;23.90;;;;;;;;;;4909723;29;20470;-70
2022/10/31 06:49:49;;;;;;;32.33;22.23;;;;;;;;;;4917971;29;20485;-69
2022/10/31 06:52:37;;;;;;;34.10;23.37;;;;;;;;;;4918913;29;20456;-70
2022/10/31 06:55:28;;;;;;;32.23;21.60;;;;;;;;;;4919313;29;20636;-70
2022/10/31 06:58:18;;;;;;;34.50;24.57;;;;;;;;;;4915492;29;20462;-70
2022/10/31 07:01:06;;;;;;;33.60;23.40;;;;;;;;;;4916909;28;20488;-70
2022/10/31 07:03:55;;;;;;;42.60;23.67;;;;;;;;;;4916253;29;20470;-70
2022/10/31 07:06:45;;;;;;;37.03;24.93;;;;;;;;;;4916207;29;20456;-71
2022/10/31 07:09:39;;;;;;;37.13;24.80;;;;;;;;;;4922081;29;20595;-71
2022/10/31 07:12:27;;;;;;;31.80;23.00;;;;;;;;;;4924910;29;20475;-71
2022/10/31 07:15:18;;;;;;;34.17;23.03;;;;;;;;;;4923680;29;20464;-71
2022/10/31 07:18:10;;;;;;;33.60;21.40;;;;;;;;;;4911483;29;20481;-70
2022/10/31 07:20:59;;;;;;;25.87;20.13;;;;;;;;;;4914771;29;20558;-70
2022/10/31 07:23:50;;;;;;;28.73;21.60;;;;;;;;;;4895797;29;20629;-71
2022/10/31 07:26:39;;;;;;;27.97;20.80;;;;;;;;;;4910975;29;20468;-70
2022/10/31 07:29:27;;;;;;;26.33;19.33;;;;;;;;;;4914556;29;21027;-70
2022/10/31 07:32:16;;;;;;;26.00;20.80;;;;;;;;;;4912106;29;20491;-70
2022/10/31 07:35:04;;;;;;;27.57;19.97;;;;;;;;;;4907380;29;20465;-71
2022/10/31 07:37:53;;;;;;;29.53;20.90;;;;;;;;;;4919153;29;20456;-70
2022/10/31 07:40:43;;;;;;;26.47;19.00;;;;;;;;;;4910963;29;20488;-70
2022/10/31 07:43:32;;;;;;;25.20;18.57;;;;;;;;;;4910847;29;20460;-71
2022/10/31 07:46:20;;;;;;;23.63;17.80;;;;;;;;;;4912289;29;20456;-71
2022/10/31 07:49:09;;;;;;;25.77;17.50;;;;;;;;;;4911177;29;20505;-70
2022/10/31 07:51:57;;;;;;;26.73;18.37;;;;;;;;;;4909676;28;20507;-71
2022/10/31 07:54:46;;;;;;;24.80;19.07;;;;;;;;;;4909310;29;20521;-71
2022/10/31 07:57:37;;;;;;;23.03;16.40;;;;;;;;;;4912941;29;20464;-75
2022/10/31 08:00:25;;;;;;;26.23;18.90;;;;;;;;;;4908960;29;21794;-70
2022/10/31 08:03:17;;;;;;;25.63;19.33;;;;;;;;;;4906679;29;20878;-72
2022/10/31 08:06:06;;;;;;;31.20;20.30;;;;;;;;;;4922366;29;20547;-71
2022/10/31 08:08:54;;;;;;;28.33;18.90;;;;;;;;;;4906208;29;20476;-72
2022/10/31 08:11:45;;;;;;;28.43;20.17;;;;;;;;;;4905888;29;21324;-73
2022/10/31 08:14:35;;;;;;;29.17;21.27;;;;;;;;;;4905434;29;20468;-71
2022/10/31 08:17:23;;;;;;;30.07;20.60;;;;;;;;;;4909442;29;21079;-71
2022/10/31 08:20:12;;;;;;;27.77;20.83;;;;;;;;;;4914013;29;20601;-72
2022/10/31 08:23:02;;;;;;;27.17;20.50;;;;;;;;;;4907623;29;20593;-73
2022/10/31 08:25:51;;;;;;;26.67;19.80;;;;;;;;;;4899946;29;20659;-72
2022/10/31 08:28:39;;;;;;;26.83;20.87;;;;;;;;;;4902513;29;20592;-72
2022/10/31 08:31:30;;;;;;;25.80;17.70;;;;;;;;;;4906487;29;20507;-71
2022/10/31 08:34:23;;;;;;;25.53;16.03;;;;;;;;;;4911226;29;20572;-72
2022/10/31 08:37:11;;;;;;;24.00;16.63;;;;;;;;;;4911288;29;20483;-73
2022/10/31 08:40:00;;;;;;;21.70;15.93;;;;;;;;;;4919526;29;20937;-70
2022/10/31 08:42:48;;;;;;;23.67;15.70;;;;;;;;;;4910270;29;20540;-70
2022/10/31 08:45:37;;;;;;;22.00;14.70;;;;;;;;;;4907992;29;20534;-70
2022/10/31 08:48:26;;;;;;;19.70;14.47;;;;;;;;;;4916833;29;20461;-70
2022/10/31 08:51:15;;;;;;;19.97;15.20;;;;;;;;;;4916858;29;20492;-70
2022/10/31 08:54:04;;;;;;;22.33;14.90;;;;;;;;;;4900974;29;20468;-71
2022/10/31 08:56:54;;;;;;;18.20;15.00;;;;;;;;;;4910132;29;20950;-71
2022/10/31 08:59:43;;;;;;;18.50;13.87;;;;;;;;;;4906906;29;20461;-70
2022/10/31 09:02:32;;;;;;;26.23;15.50;;;;;;;;;;4902516;29;21090;-70
2022/10/31 09:05:21;;;;;;;19.80;14.30;;;;;;;;;;4886664;29;20903;-70
2022/10/31 09:08:10;;;;;;;21.67;14.80;;;;;;;;;;4890492;29;20468;-71
2022/10/31 09:11:06;;;;;;;19.80;14.73;;;;;;;;;;4891035;29;20499;-71
2022/10/31 09:13:57;;;;;;;20.33;16.20;;;;;;;;;;4894138;29;20937;-71
2022/10/31 09:16:45;;;;;;;19.17;15.93;;;;;;;;;;4892655;29;20461;-70
2022/10/31 09:19:36;;;;;;;25.20;16.77;;;;;;;;;;4895764;29;20471;-70
2022/10/31 09:22:26;;;;;;;20.30;17.03;;;;;;;;;;4909190;29;20591;-71
2022/10/31 09:25:18;;;;;;;22.50;17.83;;;;;;;;;;4896270;29;20495;-79
2022/10/31 09:28:10;;;;;;;23.63;17.63;;;;;;;;;;4890619;29;21062;-71
2022/10/31 09:31:00;;;;;;;27.20;18.20;;;;;;;;;;4886896;29;21695;-71
2022/10/31 09:33:49;;;;;;;26.60;18.57;;;;;;;;;;4875620;29;20460;-70
2022/10/31 09:36:46;;;;;;;20.77;14.43;;;;;;;;;;4881108;29;20554;-70
2022/10/31 09:39:36;;;;;;;22.43;16.50;;;;;;;;;;4891034;29;21268;-76
2022/10/31 09:42:37;;;;;;;20.63;14.20;;;;;;;;;;4888657;29;20480;-73
2022/10/31 09:45:28;;;;;;;24.17;16.33;;;;;;;;;;4889646;29;20757;-73
2022/10/31 09:48:37;;;;;;;24.10;16.03;;;;;;;;;;4893074;29;20675;-72
2022/10/31 09:51:27;;;;;;;24.10;17.20;;;;;;;;;;4893273;29;20578;-70
2022/10/31 09:54:20;;;;;;;25.50;15.83;;;;;;;;;;4883903;29;21096;-72
2022/10/31 09:57:12;;;;;;;28.60;18.10;;;;;;;;;;4897662;29;20527;-72
2022/10/31 10:00:01;;;;;;;24.27;16.87;;;;;;;;;;4902841;29;20461;-72
2022/10/31 10:02:54;;;;;;;24.87;17.73;;;;;;;;;;4894013;29;20475;-74
2022/10/31 10:05:47;;;;;;;27.53;16.37;;;;;;;;;;4902361;29;20475;-72
2022/10/31 10:08:36;;;;;;;26.80;16.63;;;;;;;;;;4891226;29;20460;-72
2022/10/31 10:11:34;;;;;;;22.57;16.80;;;;;;;;;;4900780;29;20562;-72
2022/10/31 10:14:32;;;;;;;24.47;17.13;;;;;;;;;;4901584;29;20566;-72
2022/10/31 10:17:27;;;;;;;23.30;16.20;;;;;;;;;;4885713;29;20453;-72
2022/10/31 10:20:21;;;;;;;24.27;16.17;;;;;;;;;;4883223;29;20530;-71
2022/10/31 10:23:19;;;;;;;22.03;15.80;;;;;;;;;;4884390;29;20479;-72
2022/10/31 10:26:11;;;;;;;26.67;16.97;;;;;;;;;;4887180;29;21052;-72
2022/10/31 10:29:03;;;;;;;23.70;16.50;;;;;;;;;;4888653;29;20460;-72
2022/10/31 10:31:53;;;;;;;21.60;16.23;;;;;;;;;;4908490;29;20939;-73
2022/10/31 10:34:45;;;;;;;21.10;15.87;;;;;;;;;;4897291;29;20647;-73
2022/10/31 10:37:35;;;;;;;23.27;16.70;;;;;;;;;;4896996;29;20571;-72
2022/10/31 10:40:25;;;;;;;30.63;16.27;;;;;;;;;;4890536;29;21125;-72
2022/10/31 10:43:21;;;;;;;22.07;14.47;;;;;;;;;;4911518;29;20668;-72
2022/10/31 10:49:31;;;;;;;18.97;13.50;;;;;;;;;;4910972;29;20842;-72
2022/10/31 10:52:27;;;;;;;23.40;13.77;;;;;;;;;;4913807;29;20548;-71
2022/10/31 10:55:37;;;;;;;18.17;12.80;;;;;;;;;;4901960;29;20464;-73
2022/10/31 10:58:26;;;;;;;16.90;13.03;;;;;;;;;;4889918;29;20524;-74
2022/10/31 11:01:15;;;;;;;16.00;12.77;;;;;;;;;;4900550;29;20563;-73
2022/10/31 11:04:04;;;;;;;17.93;12.57;;;;;;;;;;4909933;29;20570;-74
2022/10/31 11:07:02;;;;;;;16.77;11.67;;;;;;;;;;4914658;29;20460;-73
2022/10/31 11:09:50;;;;;;;14.63;12.03;;;;;;;;;;4913528;29;20487;-73
2022/10/31 11:12:39;;;;;;;16.67;12.80;;;;;;;;;;4915901;29;20580;-72
2022/10/31 11:15:30;;;;;;;18.10;13.07;;;;;;;;;;4915706;29;20475;-72
2022/10/31 11:18:22;;;;;;;18.27;12.17;;;;;;;;;;4902290;29;20486;-71
2022/10/31 11:21:21;;;;;;;15.30;11.90;;;;;;;;;;4875857;29;20698;-71
2022/10/31 11:24:16;;;;;;;14.20;11.17;;;;;;;;;;4905082;29;20522;-70
2022/10/31 11:27:13;;;;;;;18.40;11.90;;;;;;;;;;4877644;29;20471;-71
2022/10/31 11:30:08;;;;;;;17.70;13.87;;;;;;;;;;4898899;29;20487;-72
2022/10/31 11:32:59;;;;;;;30.43;27.33;;;;;;;;;;4900458;29;21181;-70
2022/10/31 11:35:49;;;;;;;324.67;293.40;;;;;;;;;;4890169;29;20551;-73
2022/10/31 11:38:44;;;;;;;22.53;20.30;;;;;;;;;;4909245;29;20540;-71
2022/10/31 11:41:38;;;;;;;22.40;20.30;;;;;;;;;;4897808;29;20911;-72
2022/10/31 11:44:28;;;;;;;17.50;15.70;;;;;;;;;;4890742;29;20885;-73
2022/10/31 11:47:18;;;;;;;15.03;12.90;;;;;;;;;;4898288;29;20456;-75
2022/10/31 11:50:11;;;;;;;12.70;11.50;;;;;;;;;;4906569;29;20718;-74
2022/10/31 11:52:59;;;;;;;14.90;11.20;;;;;;;;;;4894326;29;21851;-73
2022/10/31 11:55:49;;;;;;;13.13;10.97;;;;;;;;;;4883727;29;21254;-75
2022/10/31 11:58:39;;;;;;;14.17;12.60;;;;;;;;;;4887641;29;20861;-74
2022/10/31 12:01:29;;;;;;;12.87;11.53;;;;;;;;;;4902318;29;20644;-74
2022/10/31 12:04:17;;;;;;;12.80;11.57;;;;;;;;;;4906585;29;20463;-74
2022/10/31 12:07:06;;;;;;;14.33;13.13;;;;;;;;;;4909718;29;21176;-74
2022/10/31 12:09:54;;;;;;;15.30;14.00;;;;;;;;;;4897116;29;20460;-73
2022/10/31 12:12:52;;;;;;;15.90;14.40;;;;;;;;;;4892736;29;20515;-74
2022/10/31 12:15:45;;;;;;;15.87;14.37;;;;;;;;;;4892015;29;20464;-74
2022/10/31 12:18:42;;;;;;;16.30;14.80;;;;;;;;;;4911969;29;20457;-74
2022/10/31 12:21:35;;;;;;;16.03;14.50;;;;;;;;;;4911099;29;20481;-73
2022/10/31 12:24:30;;;;;;;16.90;15.30;;;;;;;;;;4914048;29;20461;-75
2022/10/31 12:27:25;;;;;;;18.50;16.77;;;;;;;;;;4913786;29;20465;-72
2022/10/31 12:30:17;;;;;;;17.23;15.73;;;;;;;;;;4893206;29;20504;-70
2022/10/31 12:33:15;;;;;;;18.57;16.87;;;;;;;;;;4914965;29;20471;-71
2022/10/31 12:36:11;;;;;;;18.23;16.63;;;;;;;;;;4917914;29;20465;-71
2022/10/31 12:39:08;;;;;;;17.60;16.03;;;;;;;;;;4910857;29;20997;-71
2022/10/31 12:42:01;;;;;;;18.47;16.77;;;;;;;;;;4913185;29;20532;-71
2022/10/31 12:45:01;;;;;;;17.70;16.00;;;;;;;;;;4909123;29;20469;-71
2022/10/31 12:47:59;;;;;;;18.33;16.73;;;;;;;;;;4915276;29;20661;-71
2022/10/31 12:50:53;;;;;;;20.87;18.90;;;;;;;;;;4915901;29;20481;-72
2022/10/31 12:53:51;;;;;;;21.67;19.30;;;;;;;;;;4916305;29;20475;-72
2022/10/31 12:56:46;;;;;;;22.07;18.97;;;;;;;;;;4919672;29;20453;-71
2022/10/31 12:59:37;;;;;;;22.37;20.00;;;;;;;;;;4912330;29;20446;-71
2022/10/31 13:02:28;;;;;;;20.97;18.77;;;;;;;;;;4913255;29;20487;-71
2022/10/31 13:05:19;;;;;;;22.87;20.47;;;;;;;;;;4910081;29;20460;-71
2022/10/31 13:08:10;;;;;;;22.80;20.27;;;;;;;;;;4900942;29;21268;-71
2022/10/31 13:11:04;;;;;;;24.20;20.93;;;;;;;;;;4906462;29;20495;-69
2022/10/31 13:13:57;;;;;;;22.77;20.47;;;;;;;;;;4908617;29;20456;-70
2022/10/31 13:16:47;;;;;;;21.40;19.20;;;;;;;;;;4909364;29;20958;-70
2022/10/31 13:19:41;;;;;;;20.87;18.77;;;;;;;;;;4900957;29;20603;-70
2022/10/31 13:22:35;;;;;;;20.83;18.80;;;;;;;;;;4910741;29;20488;-72
2022/10/31 13:25:27;;;;;;;21.07;18.87;;;;;;;;;;4908590;29;20453;-72
2022/10/31 13:28:23;;;;;;;21.27;18.97;;;;;;;;;;4906687;29;20839;-72
2022/10/31 13:31:12;;;;;;;20.93;18.73;;;;;;;;;;4907543;29;20495;-73
2022/10/31 13:34:05;;;;;;;24.07;18.83;;;;;;;;;;4902625;29;20516;-72
2022/10/31 13:36:57;;;;;;;21.27;18.97;;;;;;;;;;4914456;29;20471;-72
2022/10/31 13:39:51;;;;;;;22.33;20.03;;;;;;;;;;4908823;29;20520;-73
2022/10/31 13:42:46;;;;;;;23.27;20.80;;;;;;;;;;4901377;29;20457;-75
2022/10/31 13:45:35;;;;;;;21.80;19.53;;;;;;;;;;4896457;29;20485;-79
2022/10/31 13:48:48;;;;;;;20.67;18.47;;;;;;;;;;4903954;29;21654;-74
2022/10/31 13:51:36;;;;;;;20.37;18.17;;;;;;;;;;4883741;29;20598;-73
2022/10/31 13:54:33;;;;;;;21.63;18.70;;;;;;;;;;4900458;29;20464;-73
2022/10/31 13:57:23;;;;;;;22.10;18.50;;;;;;;;;;4900953;29;20527;-74
2022/10/31 14:00:25;;;;;;;20.00;17.30;;;;;;;;;;4908470;29;20485;-73
2022/10/31 14:03:19;;;;;;;21.30;18.37;;;;;;;;;;4908164;29;20464;-74
2022/10/31 14:06:38;;;;;;;19.30;17.20;;;;;;;;;;4901488;29;21000;-73
2022/10/31 14:09:29;;;;;;;19.33;17.43;;;;;;;;;;4917280;29;20839;-74
2022/10/31 14:12:25;;;;;;;19.23;17.20;;;;;;;;;;4915344;29;20492;-72
2022/10/31 14:15:16;;;;;;;19.80;17.73;;;;;;;;;;4911213;29;20602;-72
2022/10/31 14:18:07;;;;;;;21.10;17.20;;;;;;;;;;4912692;29;20878;-73
2022/10/31 14:20:56;;;;;;;19.27;17.43;;;;;;;;;;4905290;29;20498;-72
2022/10/31 14:23:44;;;;;;;20.80;17.50;;;;;;;;;;4910183;29;21118;-75
2022/10/31 14:26:41;;;;;;;17.27;15.37;;;;;;;;;;4904417;29;22934;-71
2022/10/31 14:29:31;;;;;;;17.60;15.70;;;;;;;;;;4903239;29;20460;-71
2022/10/31 14:32:22;;;;;;;19.23;17.27;;;;;;;;;;4895148;29;20580;-72
2022/10/31 14:35:17;;;;;;;16.57;14.80;;;;;;;;;;4904266;29;20755;-72
2022/10/31 14:38:21;;;;;;;17.53;15.70;;;;;;;;;;4887605;29;21308;-71
2022/10/31 14:41:22;;;;;;;23.33;16.20;;;;;;;;;;4897786;29;20870;-71
2022/10/31 14:44:27;;;;;;;17.57;15.57;;;;;;;;;;4910224;29;20461;-71
2022/10/31 14:47:21;;;;;;;17.47;14.93;;;;;;;;;;4907719;29;20464;-72
2022/10/31 14:50:21;;;;;;;17.30;13.93;;;;;;;;;;4913520;29;20485;-72
2022/10/31 14:53:15;;;;;;;17.13;15.33;;;;;;;;;;4917034;29;21171;-72
2022/10/31 14:56:04;;;;;;;19.93;15.80;;;;;;;;;;4916041;29;20467;-72
2022/10/31 14:58:55;;;;;;;19.70;16.30;;;;;;;;;;4913295;29;20468;-73
2022/10/31 15:01:52;;;;;;;18.37;15.57;;;;;;;;;;4912656;29;20491;-73
2022/10/31 15:04:43;;;;;;;19.70;16.27;;;;;;;;;;4912543;29;20468;-72
2022/10/31 15:07:35;;;;;;;18.70;15.30;;;;;;;;;;4907666;29;20981;-73
2022/10/31 15:10:26;;;;;;;17.37;15.33;;;;;;;;;;4882185;29;20524;-71
2022/10/31 15:13:19;;;;;;;20.33;15.47;;;;;;;;;;4896632;29;20542;-70
2022/10/31 15:16:10;;;;;;;16.07;13.80;;;;;;;;;;4890431;29;20969;-70
2022/10/31 15:19:00;;;;;;;16.30;14.37;;;;;;;;;;4906802;29;21221;-70
2022/10/31 15:21:49;;;;;;;17.27;14.80;;;;;;;;;;4909234;29;20492;-71
2022/10/31 15:24:39;;;;;;;17.77;14.87;;;;;;;;;;4894426;29;21227;-71
2022/10/31 15:27:29;;;;;;;16.77;14.97;;;;;;;;;;4906476;29;20678;-70
2022/10/31 15:30:20;;;;;;;17.27;14.27;;;;;;;;;;4903875;29;20487;-70
2022/10/31 15:33:20;;;;;;;20.40;14.90;;;;;;;;;;4900966;29;20473;-70
2022/10/31 15:36:19;;;;;;;17.27;14.60;;;;;;;;;;4913876;29;20450;-71
2022/10/31 15:39:15;;;;;;;17.00;14.20;;;;;;;;;;4907319;29;20980;-71
2022/10/31 15:42:05;;;;;;;17.77;15.07;;;;;;;;;;4899116;29;20537;-70
2022/10/31 15:44:55;;;;;;;18.87;15.60;;;;;;;;;;4893324;29;20982;-69
2022/10/31 15:47:47;;;;;;;19.60;14.67;;;;;;;;;;4899450;29;20542;-70
2022/10/31 15:50:37;;;;;;;17.73;15.10;;;;;;;;;;4903849;29;21043;-71
2022/10/31 15:53:27;;;;;;;20.70;16.00;;;;;;;;;;4908187;29;21003;-70
2022/10/31 15:56:22;;;;;;;18.80;15.30;;;;;;;;;;4909511;29;20469;-72
2022/10/31 15:59:18;;;;;;;19.57;15.30;;;;;;;;;;4907743;29;20461;-71
2022/10/31 16:02:11;;;;;;;18.10;15.80;;;;;;;;;;4920105;29;21024;-71
2022/10/31 16:05:01;;;;;;;18.10;15.30;;;;;;;;;;4921644;29;21101;-71
2022/10/31 16:07:50;;;;;;;19.60;16.20;;;;;;;;;;4912990;29;20550;-72
2022/10/31 16:10:38;;;;;;;17.57;14.47;;;;;;;;;;4919332;29;21027;-71
2022/10/31 16:13:28;;;;;;;17.67;15.20;;;;;;;;;;4918446;29;20488;-71
2022/10/31 16:16:21;;;;;;;19.63;15.67;;;;;;;;;;4918198;29;20464;-71
2022/10/31 16:19:23;;;;;;;18.37;15.20;;;;;;;;;;4920136;29;20823;-70
2022/10/31 16:22:13;;;;;;;19.03;15.17;;;;;;;;;;4913846;29;20551;-72
2022/10/31 16:25:05;;;;;;;16.23;13.30;;;;;;;;;;4911485;29;20465;-69
2022/10/31 16:27:55;;;;;;;16.10;13.87;;;;;;;;;;4913203;29;20493;-70
2022/10/31 16:30:45;;;;;;;18.77;14.10;;;;;;;;;;4904782;29;20575;-71
2022/10/31 16:33:40;;;;;;;20.23;14.27;;;;;;;;;;4897963;29;20626;-70
2022/10/31 16:36:32;;;;;;;17.77;14.27;;;;;;;;;;4910562;29;20941;-69
2022/10/31 16:39:24;;;;;;;18.73;14.60;;;;;;;;;;4916315;29;20466;-71
2022/10/31 16:42:12;;;;;;;18.97;14.50;;;;;;;;;;4913410;29;20492;-72
2022/10/31 16:45:01;;;;;;;16.77;14.03;;;;;;;;;;4915400;29;20453;-72